createdAt,value
2016-11-11T00:00:08.184Z,0
2016-11-11T00:00:40.504Z,0
2016-11-11T00:01:12.831Z,0
2016-11-11T00:01:45.159Z,0
2016-11-11T00:02:17.498Z,0
2016-11-11T00:02:49.821Z,0
2016-11-11T00:03:22.149Z,0
2016-11-11T00:03:54.459Z,0
2016-11-11T00:04:26.761Z,0
2016-11-11T00:04:59.100Z,0
2016-11-11T00:05:31.428Z,0
2016-11-11T00:06:03.775Z,0
2016-11-11T00:06:36.091Z,0
2016-11-11T00:07:08.405Z,0
2016-11-11T00:07:40.737Z,0
2016-11-11T00:08:13.069Z,0
2016-11-11T00:08:45.386Z,0
2016-11-11T00:09:17.705Z,0
2016-11-11T00:09:50.022Z,0
2016-11-11T00:10:22.333Z,0
2016-11-11T00:10:54.652Z,0
2016-11-11T00:11:26.970Z,0
2016-11-11T00:11:59.278Z,0
2016-11-11T00:12:31.614Z,0
2016-11-11T00:13:03.946Z,0
2016-11-11T00:13:36.249Z,0
2016-11-11T00:14:08.557Z,0
2016-11-11T00:14:40.884Z,0
2016-11-11T00:15:13.213Z,0
2016-11-11T00:15:45.527Z,0
2016-11-11T00:16:17.843Z,0
2016-11-11T00:16:50.177Z,0
2016-11-11T00:17:22.509Z,0
2016-11-11T00:17:54.816Z,0
2016-11-11T00:18:27.147Z,0
2016-11-11T00:18:59.480Z,0
2016-11-11T00:19:31.804Z,0
2016-11-11T00:20:04.127Z,0
2016-11-11T00:20:36.450Z,0
2016-11-11T00:21:08.774Z,0
2016-11-11T00:21:41.106Z,0
2016-11-11T00:22:13.431Z,0
2016-11-11T00:22:45.779Z,0
2016-11-11T00:23:18.118Z,0
2016-11-11T00:23:50.429Z,0
2016-11-11T00:24:22.756Z,0
2016-11-11T00:24:55.090Z,0
2016-11-11T00:25:27.450Z,0
2016-11-11T00:25:59.777Z,0
2016-11-11T00:26:32.112Z,0
2016-11-11T00:27:04.428Z,0
2016-11-11T00:27:36.755Z,0
2016-11-11T00:28:09.088Z,0
2016-11-11T00:28:41.417Z,0
2016-11-11T00:29:13.733Z,0
2016-11-11T00:29:46.067Z,0
2016-11-11T00:30:18.391Z,0
2016-11-11T00:30:50.711Z,0
2016-11-11T00:31:23.086Z,0
2016-11-11T00:31:55.410Z,0
2016-11-11T00:32:27.743Z,0
2016-11-11T00:33:00.062Z,0
2016-11-11T00:33:32.428Z,0
2016-11-11T00:34:04.765Z,0
2016-11-11T00:34:37.095Z,0
2016-11-11T00:35:09.429Z,0
2016-11-11T00:35:41.763Z,0
2016-11-11T00:36:14.096Z,0
2016-11-11T00:36:46.430Z,0
2016-11-11T00:37:18.760Z,0
2016-11-11T00:37:51.086Z,0
2016-11-11T00:38:23.416Z,0
2016-11-11T00:38:55.745Z,0
2016-11-11T00:39:28.069Z,0
2016-11-11T00:40:00.393Z,0
2016-11-11T00:40:32.715Z,0
2016-11-11T00:41:05.027Z,0
2016-11-11T00:41:37.356Z,0
2016-11-11T00:42:09.692Z,0
2016-11-11T00:42:42.047Z,0
2016-11-11T00:43:14.373Z,0
2016-11-11T00:43:46.699Z,0
2016-11-11T00:44:19.024Z,0
2016-11-11T00:44:51.355Z,0
2016-11-11T00:45:23.713Z,0
2016-11-11T00:45:56.047Z,0
2016-11-11T00:46:28.382Z,0
2016-11-11T00:47:00.714Z,0
2016-11-11T00:47:33.022Z,0
2016-11-11T00:48:05.333Z,0
2016-11-11T00:48:37.663Z,0
2016-11-11T00:49:09.984Z,0
2016-11-11T00:49:42.308Z,0
2016-11-11T00:50:14.626Z,0
2016-11-11T00:50:46.954Z,0
2016-11-11T00:51:19.281Z,0
2016-11-11T00:51:51.611Z,0
2016-11-11T00:52:23.949Z,0
2016-11-11T00:52:56.279Z,0
2016-11-11T00:53:28.587Z,0
2016-11-11T00:54:00.935Z,0
2016-11-11T00:54:33.266Z,0
2016-11-11T00:55:05.607Z,0
2016-11-11T00:55:37.950Z,0
2016-11-11T00:56:10.278Z,0
2016-11-11T00:56:42.611Z,0
2016-11-11T00:57:14.922Z,0
2016-11-11T00:57:47.233Z,0
2016-11-11T00:58:19.581Z,0
2016-11-11T00:58:51.900Z,0
2016-11-11T00:59:24.227Z,0
2016-11-11T00:59:56.563Z,0
2016-11-11T01:00:28.878Z,0
2016-11-11T01:01:01.199Z,0
2016-11-11T01:01:33.571Z,0
2016-11-11T01:02:05.900Z,0
2016-11-11T01:02:38.226Z,0
2016-11-11T01:03:10.560Z,0
2016-11-11T01:03:42.892Z,0
2016-11-11T01:04:15.221Z,0
2016-11-11T01:04:47.556Z,0
2016-11-11T01:05:19.887Z,0
2016-11-11T01:05:52.208Z,0
2016-11-11T01:06:25.157Z,0
2016-11-11T01:06:58.350Z,0
2016-11-11T01:07:31.630Z,0
2016-11-11T01:08:05.069Z,0
2016-11-11T01:08:38.274Z,0
2016-11-11T01:09:11.792Z,0
2016-11-11T01:09:45.225Z,0
2016-11-11T01:10:18.434Z,0
2016-11-11T01:10:52.067Z,0
2016-11-11T01:11:25.389Z,0
2016-11-11T01:11:58.580Z,0
2016-11-11T01:12:32.091Z,0
2016-11-11T01:13:05.366Z,0
2016-11-11T01:13:38.638Z,0
2016-11-11T01:14:12.098Z,0
2016-11-11T01:14:45.295Z,0
2016-11-11T01:15:18.576Z,0
2016-11-11T01:15:52.189Z,0
2016-11-11T01:16:25.707Z,0
2016-11-11T01:16:58.458Z,0
2016-11-11T01:17:30.786Z,0
2016-11-11T01:18:03.099Z,0
2016-11-11T01:18:35.428Z,0
2016-11-11T01:19:07.762Z,0
2016-11-11T01:19:40.076Z,0
2016-11-11T01:20:12.403Z,0
2016-11-11T01:20:44.735Z,0
2016-11-11T01:21:17.051Z,0
2016-11-11T01:21:49.386Z,0
2016-11-11T01:22:21.705Z,0
2016-11-11T01:22:54.024Z,0
2016-11-11T01:23:26.387Z,0
2016-11-11T01:23:58.712Z,0
2016-11-11T01:24:31.040Z,0
2016-11-11T01:25:03.359Z,0
2016-11-11T01:25:35.690Z,0
2016-11-11T01:26:07.998Z,0
2016-11-11T01:26:40.330Z,0
2016-11-11T01:27:12.662Z,0
2016-11-11T01:27:44.991Z,0
2016-11-11T01:28:17.309Z,0
2016-11-11T01:28:49.670Z,0
2016-11-11T01:29:21.999Z,0
2016-11-11T01:29:54.329Z,0
2016-11-11T01:30:26.641Z,0
2016-11-11T01:30:58.951Z,0
2016-11-11T01:31:31.273Z,0
2016-11-11T01:32:03.609Z,0
2016-11-11T01:32:35.944Z,0
2016-11-11T01:33:08.276Z,0
2016-11-11T01:33:40.613Z,0
2016-11-11T01:34:12.933Z,0
2016-11-11T01:34:45.259Z,0
2016-11-11T01:35:17.576Z,0
2016-11-11T01:35:49.876Z,0
2016-11-11T01:36:22.211Z,0
2016-11-11T01:36:54.531Z,0
2016-11-11T01:37:26.862Z,0
2016-11-11T01:37:59.179Z,0
2016-11-11T01:38:31.504Z,0
2016-11-11T01:39:03.852Z,0
2016-11-11T01:39:36.183Z,0
2016-11-11T01:40:08.511Z,0
2016-11-11T01:40:40.843Z,0
2016-11-11T01:41:13.177Z,0
2016-11-11T01:41:45.507Z,0
2016-11-11T01:42:17.822Z,0
2016-11-11T01:42:50.155Z,0
2016-11-11T01:43:22.480Z,0
2016-11-11T01:43:54.784Z,0
2016-11-11T01:44:27.107Z,0
2016-11-11T01:44:59.429Z,0
2016-11-11T01:45:31.759Z,0
2016-11-11T01:46:04.079Z,0
2016-11-11T01:46:36.400Z,0
2016-11-11T01:47:08.729Z,0
2016-11-11T01:47:41.056Z,0
2016-11-11T01:48:13.383Z,0
2016-11-11T01:48:45.709Z,0
2016-11-11T01:49:18.020Z,0
2016-11-11T01:49:50.355Z,0
2016-11-11T01:50:22.674Z,0
2016-11-11T01:50:54.986Z,0
2016-11-11T01:51:27.314Z,0
2016-11-11T01:51:59.638Z,0
2016-11-11T01:52:31.975Z,0
2016-11-11T01:53:04.338Z,0
2016-11-11T01:53:36.665Z,0
2016-11-11T01:54:08.991Z,0
2016-11-11T01:54:41.314Z,0
2016-11-11T01:55:13.636Z,0
2016-11-11T01:55:45.965Z,0
2016-11-11T01:56:18.272Z,0
2016-11-11T01:56:50.596Z,0
2016-11-11T01:57:22.926Z,0
2016-11-11T01:57:55.252Z,0
2016-11-11T01:58:27.571Z,0
2016-11-11T01:58:59.894Z,0
2016-11-11T01:59:32.205Z,0
2016-11-11T02:00:04.538Z,0
2016-11-11T02:00:36.873Z,0
2016-11-11T02:01:09.201Z,0
2016-11-11T02:01:41.538Z,0
2016-11-11T02:02:13.896Z,0
2016-11-11T02:02:46.221Z,0
2016-11-11T02:03:18.544Z,0
2016-11-11T02:03:50.882Z,0
2016-11-11T02:04:23.206Z,0
2016-11-11T02:04:55.530Z,0
2016-11-11T02:05:27.858Z,0
2016-11-11T02:06:00.182Z,0
2016-11-11T02:06:32.496Z,0
2016-11-11T02:07:04.826Z,0
2016-11-11T02:07:37.153Z,0
2016-11-11T02:08:09.460Z,0
2016-11-11T02:08:41.820Z,0
2016-11-11T02:09:14.138Z,0
2016-11-11T02:09:46.473Z,0
2016-11-11T02:10:18.805Z,0
2016-11-11T02:10:51.140Z,0
2016-11-11T02:11:23.466Z,0
2016-11-11T02:11:55.834Z,0
2016-11-11T02:12:28.164Z,0
2016-11-11T02:13:00.497Z,0
2016-11-11T02:13:32.807Z,0
2016-11-11T02:14:05.149Z,0
2016-11-11T02:14:37.493Z,0
2016-11-11T02:15:09.824Z,0
2016-11-11T02:15:42.182Z,0
2016-11-11T02:16:14.502Z,0
2016-11-11T02:16:46.840Z,0
2016-11-11T02:17:19.165Z,0
2016-11-11T02:17:51.487Z,0
2016-11-11T02:18:23.827Z,0
2016-11-11T02:18:56.162Z,0
2016-11-11T02:19:28.493Z,0
2016-11-11T02:20:00.819Z,0
2016-11-11T02:20:33.137Z,0
2016-11-11T02:21:05.462Z,0
2016-11-11T02:21:37.778Z,0
2016-11-11T02:22:10.079Z,0
2016-11-11T02:22:42.430Z,0
2016-11-11T02:23:14.739Z,0
2016-11-11T02:23:47.062Z,0
2016-11-11T02:24:19.389Z,0
2016-11-11T02:24:51.712Z,0
2016-11-11T02:25:24.038Z,0
2016-11-11T02:25:56.362Z,0
2016-11-11T02:26:28.694Z,0
2016-11-11T02:27:01.025Z,0
2016-11-11T02:27:33.352Z,0
2016-11-11T02:28:05.663Z,0
2016-11-11T02:28:37.974Z,0
2016-11-11T02:29:10.292Z,0
2016-11-11T02:29:42.624Z,0
2016-11-11T02:30:14.943Z,0
2016-11-11T02:30:47.292Z,0
2016-11-11T02:31:19.616Z,0
2016-11-11T02:31:51.936Z,0
2016-11-11T02:32:24.277Z,0
2016-11-11T02:32:56.603Z,0
2016-11-11T02:33:28.945Z,0
2016-11-11T02:34:01.269Z,0
2016-11-11T02:34:33.587Z,0
2016-11-11T02:35:05.926Z,0
2016-11-11T02:35:38.244Z,0
2016-11-11T02:36:10.570Z,0
2016-11-11T02:36:42.908Z,0
2016-11-11T02:37:15.240Z,0
2016-11-11T02:37:47.563Z,0
2016-11-11T02:38:19.900Z,0
2016-11-11T02:38:52.228Z,0
2016-11-11T02:39:24.552Z,0
2016-11-11T02:39:56.878Z,0
2016-11-11T02:40:29.209Z,0
2016-11-11T02:41:01.527Z,0
2016-11-11T02:41:33.850Z,0
2016-11-11T02:42:06.180Z,0
2016-11-11T02:42:38.519Z,0
2016-11-11T02:43:10.850Z,0
2016-11-11T02:43:43.189Z,0
2016-11-11T02:44:15.515Z,0
2016-11-11T02:44:47.847Z,0
2016-11-11T02:45:20.174Z,0
2016-11-11T02:45:52.536Z,0
2016-11-11T02:46:24.861Z,0
2016-11-11T02:46:57.195Z,0
2016-11-11T02:47:29.524Z,0
2016-11-11T02:48:01.844Z,0
2016-11-11T02:48:34.188Z,0
2016-11-11T02:49:06.513Z,0
2016-11-11T02:49:38.841Z,0
2016-11-11T02:50:11.167Z,0
2016-11-11T02:50:43.504Z,0
2016-11-11T02:51:15.828Z,0
2016-11-11T02:51:48.155Z,0
2016-11-11T02:52:20.461Z,0
2016-11-11T02:52:52.792Z,0
2016-11-11T02:53:25.117Z,0
2016-11-11T02:53:57.439Z,0
2016-11-11T02:54:29.770Z,0
2016-11-11T02:55:02.092Z,0
2016-11-11T02:55:34.402Z,0
2016-11-11T02:56:06.710Z,0
2016-11-11T02:56:39.032Z,0
2016-11-11T02:57:11.361Z,0
2016-11-11T02:57:43.667Z,0
2016-11-11T02:58:16.042Z,0
2016-11-11T02:58:48.367Z,0
2016-11-11T02:59:20.700Z,0
2016-11-11T02:59:53.036Z,0
2016-11-11T03:00:25.348Z,0
2016-11-11T03:00:57.663Z,0
2016-11-11T03:01:29.984Z,0
2016-11-11T03:02:02.316Z,0
2016-11-11T03:02:34.653Z,0
2016-11-11T03:03:06.973Z,0
2016-11-11T03:03:39.302Z,0
2016-11-11T03:04:12.236Z,0
2016-11-11T03:04:44.559Z,0
2016-11-11T03:05:16.894Z,0
2016-11-11T03:05:49.214Z,0
2016-11-11T03:06:21.520Z,0
2016-11-11T03:06:53.853Z,0
2016-11-11T03:07:26.194Z,0
2016-11-11T03:07:58.520Z,0
2016-11-11T03:08:30.849Z,0
2016-11-11T03:09:03.175Z,0
2016-11-11T03:09:35.479Z,0
2016-11-11T03:10:07.800Z,0
2016-11-11T03:10:40.162Z,0
2016-11-11T03:11:12.481Z,0
2016-11-11T03:11:44.817Z,0
2016-11-11T03:12:17.151Z,0
2016-11-11T03:12:49.484Z,0
2016-11-11T03:13:21.810Z,0
2016-11-11T03:13:54.126Z,0
2016-11-11T03:14:26.457Z,0
2016-11-11T03:14:58.786Z,0
2016-11-11T03:15:31.123Z,0
2016-11-11T03:16:03.453Z,0
2016-11-11T03:16:35.770Z,0
2016-11-11T03:17:08.105Z,0
2016-11-11T03:17:40.423Z,0
2016-11-11T03:18:12.744Z,0
2016-11-11T03:18:45.074Z,0
2016-11-11T03:19:17.412Z,0
2016-11-11T03:19:49.730Z,0
2016-11-11T03:20:22.062Z,0
2016-11-11T03:20:54.388Z,0
2016-11-11T03:21:26.715Z,0
2016-11-11T03:21:59.037Z,0
2016-11-11T03:22:31.376Z,0
2016-11-11T03:23:03.701Z,0
2016-11-11T03:23:36.012Z,0
2016-11-11T03:24:08.340Z,0
2016-11-11T03:24:40.662Z,0
2016-11-11T03:25:12.986Z,0
2016-11-11T03:25:45.310Z,0
2016-11-11T03:26:17.638Z,0
2016-11-11T03:26:49.973Z,0
2016-11-11T03:27:22.288Z,0
2016-11-11T03:27:54.612Z,0
2016-11-11T03:28:26.932Z,0
2016-11-11T03:28:59.253Z,0
2016-11-11T03:29:31.586Z,0
2016-11-11T03:30:03.920Z,0
2016-11-11T03:30:36.253Z,0
2016-11-11T03:31:08.569Z,0
2016-11-11T03:31:40.911Z,0
2016-11-11T03:32:13.246Z,0
2016-11-11T03:32:45.578Z,0
2016-11-11T03:33:17.923Z,0
2016-11-11T03:33:50.246Z,0
2016-11-11T03:34:22.578Z,0
2016-11-11T03:34:54.894Z,0
2016-11-11T03:35:27.228Z,0
2016-11-11T03:35:59.555Z,0
2016-11-11T03:36:31.901Z,0
2016-11-11T03:37:04.231Z,0
2016-11-11T03:37:36.551Z,0
2016-11-11T03:38:08.879Z,0
2016-11-11T03:38:41.202Z,0
2016-11-11T03:39:13.530Z,0
2016-11-11T03:39:45.865Z,0
2016-11-11T03:40:18.205Z,0
2016-11-11T03:40:50.523Z,0
2016-11-11T03:41:22.860Z,0
2016-11-11T03:41:55.215Z,0
2016-11-11T03:42:27.538Z,0
2016-11-11T03:42:59.883Z,0
2016-11-11T03:43:32.212Z,0
2016-11-11T03:44:04.539Z,0
2016-11-11T03:44:36.861Z,0
2016-11-11T03:45:09.197Z,0
2016-11-11T03:45:41.523Z,0
2016-11-11T03:46:13.847Z,0
2016-11-11T03:46:46.166Z,0
2016-11-11T03:47:18.498Z,0
2016-11-11T03:47:50.818Z,0
2016-11-11T03:48:23.146Z,0
2016-11-11T03:48:55.481Z,0
2016-11-11T03:49:27.809Z,0
2016-11-11T03:50:00.140Z,0
2016-11-11T03:50:32.489Z,0
2016-11-11T03:51:04.837Z,0
2016-11-11T03:51:37.158Z,0
2016-11-11T03:52:09.469Z,0
2016-11-11T03:52:41.782Z,0
2016-11-11T03:53:14.101Z,0
2016-11-11T03:53:46.431Z,0
2016-11-11T03:54:18.761Z,0
2016-11-11T03:54:51.084Z,0
2016-11-11T03:55:23.418Z,0
2016-11-11T03:55:55.752Z,0
2016-11-11T03:56:28.067Z,0
2016-11-11T03:57:00.399Z,0
2016-11-11T03:57:32.718Z,0
2016-11-11T03:58:05.081Z,0
2016-11-11T03:58:37.409Z,0
2016-11-11T03:59:09.737Z,0
2016-11-11T03:59:42.068Z,0
2016-11-11T04:00:14.390Z,0
2016-11-11T04:00:46.723Z,0
2016-11-11T04:01:19.069Z,0
2016-11-11T04:01:51.387Z,0
2016-11-11T04:02:23.714Z,0
2016-11-11T04:02:56.040Z,0
2016-11-11T04:03:28.378Z,0
2016-11-11T04:04:00.704Z,0
2016-11-11T04:04:33.053Z,0
2016-11-11T04:05:05.383Z,0
2016-11-11T04:05:37.719Z,0
2016-11-11T04:06:10.056Z,0
2016-11-11T04:06:42.386Z,0
2016-11-11T04:07:14.712Z,0
2016-11-11T04:07:47.027Z,0
2016-11-11T04:08:19.372Z,0
2016-11-11T04:08:51.697Z,0
2016-11-11T04:09:24.026Z,0
2016-11-11T04:09:56.362Z,0
2016-11-11T04:10:28.694Z,0
2016-11-11T04:11:01.030Z,0
2016-11-11T04:11:33.354Z,0
2016-11-11T04:12:05.682Z,0
2016-11-11T04:12:38.023Z,0
2016-11-11T04:13:10.351Z,0
2016-11-11T04:13:42.691Z,0
2016-11-11T04:14:15.010Z,0
2016-11-11T04:14:47.331Z,0
2016-11-11T04:15:19.665Z,0
2016-11-11T04:15:52.005Z,0
2016-11-11T04:16:24.332Z,0
2016-11-11T04:16:56.669Z,0
2016-11-11T04:17:29.003Z,0
2016-11-11T04:18:01.337Z,0
2016-11-11T04:18:33.707Z,0
2016-11-11T04:19:06.028Z,0
2016-11-11T04:19:38.346Z,0
2016-11-11T04:20:10.664Z,0
2016-11-11T04:20:42.997Z,0
2016-11-11T04:21:15.360Z,0
2016-11-11T04:21:47.691Z,0
2016-11-11T04:22:20.027Z,0
2016-11-11T04:22:52.365Z,0
2016-11-11T04:23:24.704Z,0
2016-11-11T04:23:57.036Z,0
2016-11-11T04:24:29.357Z,0
2016-11-11T04:25:01.690Z,0
2016-11-11T04:25:34.049Z,0
2016-11-11T04:26:06.379Z,0
2016-11-11T04:26:38.702Z,0
2016-11-11T04:27:11.031Z,0
2016-11-11T04:27:43.355Z,0
2016-11-11T04:28:15.723Z,0
2016-11-11T04:28:48.045Z,0
2016-11-11T04:29:20.367Z,0
2016-11-11T04:29:52.691Z,0
2016-11-11T04:30:25.016Z,0
2016-11-11T04:30:57.339Z,0
2016-11-11T04:31:29.677Z,0
2016-11-11T04:32:02.009Z,0
2016-11-11T04:32:34.339Z,0
2016-11-11T04:33:06.675Z,0
2016-11-11T04:33:39.006Z,0
2016-11-11T04:34:11.368Z,0
2016-11-11T04:34:43.697Z,0
2016-11-11T04:35:16.077Z,0
2016-11-11T04:35:48.410Z,0
2016-11-11T04:36:20.746Z,0
2016-11-11T04:36:53.076Z,0
2016-11-11T04:37:25.391Z,0
2016-11-11T04:37:57.727Z,0
2016-11-11T04:38:30.053Z,0
2016-11-11T04:39:02.389Z,0
2016-11-11T04:39:34.724Z,0
2016-11-11T04:40:07.053Z,0
2016-11-11T04:40:39.388Z,0
2016-11-11T04:41:11.701Z,0
2016-11-11T04:41:44.029Z,0
2016-11-11T04:42:16.355Z,0
2016-11-11T04:42:48.709Z,0
2016-11-11T04:43:21.030Z,0
2016-11-11T04:43:53.361Z,0
2016-11-11T04:44:25.686Z,0
2016-11-11T04:44:58.006Z,0
2016-11-11T04:45:30.336Z,0
2016-11-11T04:46:02.671Z,0
2016-11-11T04:46:34.982Z,0
2016-11-11T04:47:07.298Z,0
2016-11-11T04:47:39.634Z,0
2016-11-11T04:48:11.956Z,0
2016-11-11T04:48:44.276Z,0
2016-11-11T04:49:16.608Z,0
2016-11-11T04:49:48.930Z,0
2016-11-11T04:50:21.265Z,0
2016-11-11T04:50:53.577Z,0
2016-11-11T04:51:25.909Z,0
2016-11-11T04:51:58.234Z,0
2016-11-11T04:52:30.562Z,0
2016-11-11T04:53:02.896Z,0
2016-11-11T04:53:35.228Z,0
2016-11-11T04:54:07.560Z,0
2016-11-11T04:54:39.902Z,0
2016-11-11T04:55:12.234Z,0
2016-11-11T04:55:44.566Z,0
2016-11-11T04:56:16.884Z,0
2016-11-11T04:56:49.189Z,0
2016-11-11T04:57:21.521Z,0
2016-11-11T04:57:53.852Z,0
2016-11-11T04:58:26.180Z,0
2016-11-11T04:58:58.521Z,0
2016-11-11T04:59:30.855Z,0
2016-11-11T05:00:03.186Z,0
2016-11-11T05:00:35.511Z,0
2016-11-11T05:01:07.826Z,0
2016-11-11T05:01:40.864Z,0
2016-11-11T05:02:13.180Z,0
2016-11-11T05:02:45.500Z,0
2016-11-11T05:03:17.833Z,0
2016-11-11T05:03:50.160Z,0
2016-11-11T05:04:22.489Z,0
2016-11-11T05:04:54.813Z,0
2016-11-11T05:05:27.143Z,0
2016-11-11T05:05:59.485Z,0
2016-11-11T05:06:31.803Z,0
2016-11-11T05:07:04.135Z,0
2016-11-11T05:07:36.469Z,0
2016-11-11T05:08:08.781Z,0
2016-11-11T05:08:41.110Z,0
2016-11-11T05:09:13.433Z,0
2016-11-11T05:09:45.773Z,0
2016-11-11T05:10:18.107Z,0
2016-11-11T05:10:50.444Z,0
2016-11-11T05:11:22.772Z,0
2016-11-11T05:11:55.086Z,0
2016-11-11T05:12:27.402Z,0
2016-11-11T05:12:59.749Z,0
2016-11-11T05:13:32.075Z,0
2016-11-11T05:14:04.401Z,0
2016-11-11T05:14:36.730Z,0
2016-11-11T05:15:09.095Z,0
2016-11-11T05:15:41.419Z,0
2016-11-11T05:16:13.755Z,0
2016-11-11T05:16:46.089Z,0
2016-11-11T05:17:18.411Z,0
2016-11-11T05:17:50.732Z,0
2016-11-11T05:18:23.075Z,0
2016-11-11T05:18:55.394Z,0
2016-11-11T05:19:27.721Z,0
2016-11-11T05:20:00.055Z,0
2016-11-11T05:20:32.378Z,0
2016-11-11T05:21:04.732Z,0
2016-11-11T05:21:37.067Z,0
2016-11-11T05:22:09.400Z,0
2016-11-11T05:22:41.735Z,0
2016-11-11T05:23:14.109Z,0
2016-11-11T05:23:46.422Z,0
2016-11-11T05:24:18.757Z,0
2016-11-11T05:24:51.122Z,0
2016-11-11T05:25:23.444Z,0
2016-11-11T05:25:55.809Z,0
2016-11-11T05:26:28.146Z,0
2016-11-11T05:27:00.478Z,0
2016-11-11T05:27:32.794Z,0
2016-11-11T05:28:05.117Z,0
2016-11-11T05:28:37.439Z,0
2016-11-11T05:29:09.786Z,0
2016-11-11T05:29:42.118Z,0
2016-11-11T05:30:14.449Z,0
2016-11-11T05:30:46.780Z,0
2016-11-11T05:31:19.096Z,0
2016-11-11T05:31:51.420Z,0
2016-11-11T05:32:23.747Z,0
2016-11-11T05:32:56.078Z,0
2016-11-11T05:33:28.402Z,0
2016-11-11T05:34:00.738Z,0
2016-11-11T05:34:33.108Z,0
2016-11-11T05:35:05.430Z,0
2016-11-11T05:35:37.764Z,0
2016-11-11T05:36:10.066Z,0
2016-11-11T05:36:42.414Z,0
2016-11-11T05:37:15.273Z,0
2016-11-11T05:37:47.607Z,0
2016-11-11T05:38:19.928Z,0
2016-11-11T05:38:52.260Z,0
2016-11-11T05:39:24.582Z,0
2016-11-11T05:39:56.915Z,0
2016-11-11T05:40:29.246Z,0
2016-11-11T05:41:01.584Z,0
2016-11-11T05:41:33.913Z,0
2016-11-11T05:42:06.237Z,0
2016-11-11T05:42:38.568Z,0
2016-11-11T05:43:10.890Z,0
2016-11-11T05:43:43.236Z,0
2016-11-11T05:44:15.560Z,0
2016-11-11T05:44:47.886Z,0
2016-11-11T05:45:20.211Z,0
2016-11-11T05:45:52.529Z,0
2016-11-11T05:46:24.871Z,0
2016-11-11T05:46:57.228Z,0
2016-11-11T05:47:29.559Z,0
2016-11-11T05:48:01.880Z,0
2016-11-11T05:48:34.199Z,0
2016-11-11T05:49:06.514Z,0
2016-11-11T05:49:38.855Z,0
2016-11-11T05:50:11.183Z,0
2016-11-11T05:50:43.495Z,0
2016-11-11T05:51:15.811Z,0
2016-11-11T05:51:48.137Z,0
2016-11-11T05:52:20.502Z,0
2016-11-11T05:52:52.830Z,0
2016-11-11T05:53:25.157Z,0
2016-11-11T05:53:57.482Z,0
2016-11-11T05:54:29.836Z,0
2016-11-11T05:55:02.159Z,0
2016-11-11T05:55:34.485Z,0
2016-11-11T05:56:06.818Z,0
2016-11-11T05:56:39.159Z,0
2016-11-11T05:57:11.483Z,0
2016-11-11T05:57:43.815Z,0
2016-11-11T05:58:16.150Z,0
2016-11-11T05:58:48.475Z,0
2016-11-11T05:59:20.839Z,0
2016-11-11T05:59:53.164Z,0
2016-11-11T06:00:25.492Z,0
2016-11-11T06:00:57.819Z,0
2016-11-11T06:01:30.164Z,0
2016-11-11T06:02:02.498Z,0
2016-11-11T06:02:34.838Z,0
2016-11-11T06:03:07.152Z,0
2016-11-11T06:03:39.484Z,0
2016-11-11T06:04:11.811Z,0
2016-11-11T06:04:44.139Z,0
2016-11-11T06:05:16.482Z,0
2016-11-11T06:05:48.815Z,0
2016-11-11T06:06:21.149Z,0
2016-11-11T06:06:53.481Z,0
2016-11-11T06:07:25.796Z,0
2016-11-11T06:07:58.125Z,0
2016-11-11T06:08:30.454Z,0
2016-11-11T06:09:02.789Z,0
2016-11-11T06:09:35.104Z,0
2016-11-11T06:10:07.441Z,0
2016-11-11T06:10:39.775Z,0
2016-11-11T06:11:12.108Z,0
2016-11-11T06:11:44.431Z,0
2016-11-11T06:12:16.792Z,0
2016-11-11T06:12:49.797Z,0
2016-11-11T06:13:22.126Z,0
2016-11-11T06:13:54.457Z,0
2016-11-11T06:14:26.793Z,0
2016-11-11T06:14:59.117Z,0
2016-11-11T06:15:31.462Z,0
2016-11-11T06:16:03.958Z,0
2016-11-11T06:16:36.648Z,0
2016-11-11T06:17:08.989Z,0
2016-11-11T06:17:41.304Z,0
2016-11-11T06:18:13.632Z,0
2016-11-11T06:18:46.906Z,0
2016-11-11T06:19:19.238Z,0
2016-11-11T06:19:51.567Z,0
2016-11-11T06:20:23.967Z,4
2016-11-11T06:20:56.284Z,4
2016-11-11T06:21:28.593Z,4
2016-11-11T06:22:00.968Z,4
2016-11-11T06:22:33.390Z,0
2016-11-11T06:23:05.712Z,0
2016-11-11T06:23:38.024Z,0
2016-11-11T06:24:10.334Z,4
2016-11-11T06:24:42.861Z,4
2016-11-11T06:25:15.267Z,4
2016-11-11T06:25:48.415Z,4
2016-11-11T06:26:20.957Z,8
2016-11-11T06:26:53.333Z,4
2016-11-11T06:27:25.893Z,4
2016-11-11T06:27:58.411Z,4
2016-11-11T06:28:30.761Z,4
2016-11-11T06:29:03.113Z,4
2016-11-11T06:29:35.611Z,4
2016-11-11T06:30:07.995Z,8
2016-11-11T06:30:40.468Z,8
2016-11-11T06:31:13.988Z,8
2016-11-11T06:32:01.508Z,8
2016-11-11T06:32:38.991Z,8
2016-11-11T06:33:11.323Z,8
2016-11-11T06:33:44.504Z,8
2016-11-11T06:34:17.229Z,12
2016-11-11T06:34:49.570Z,8
2016-11-11T06:35:22.042Z,8
2016-11-11T06:35:54.414Z,12
2016-11-11T06:36:26.772Z,12
2016-11-11T06:36:59.944Z,12
2016-11-11T06:37:32.262Z,12
2016-11-11T06:38:04.701Z,12
2016-11-11T06:38:37.232Z,12
2016-11-11T06:39:09.766Z,16
2016-11-11T06:39:42.316Z,16
2016-11-11T06:40:14.826Z,16
2016-11-11T06:40:47.443Z,16
2016-11-11T06:41:19.987Z,16
2016-11-11T06:41:53.506Z,20
2016-11-11T06:42:26.039Z,20
2016-11-11T06:42:58.630Z,20
2016-11-11T06:43:31.026Z,20
2016-11-11T06:44:03.389Z,24
2016-11-11T06:44:37.741Z,24
2016-11-11T06:45:11.716Z,32
2016-11-11T06:45:45.072Z,40
2016-11-11T06:46:18.953Z,40
2016-11-11T06:46:53.837Z,44
2016-11-11T06:47:26.465Z,44
2016-11-11T06:47:58.938Z,40
2016-11-11T06:48:31.429Z,40
2016-11-11T06:49:03.998Z,40
2016-11-11T06:49:36.583Z,40
2016-11-11T06:50:09.169Z,40
2016-11-11T06:50:41.747Z,48
2016-11-11T06:51:14.306Z,48
2016-11-11T06:51:46.852Z,48
2016-11-11T06:52:19.437Z,52
2016-11-11T06:52:52.074Z,52
2016-11-11T06:53:24.481Z,52
2016-11-11T06:53:56.799Z,52
2016-11-11T06:54:31.288Z,48
2016-11-11T06:55:03.628Z,48
2016-11-11T06:55:35.944Z,52
2016-11-11T06:56:08.269Z,48
2016-11-11T06:56:40.606Z,52
2016-11-11T06:57:13.081Z,56
2016-11-11T06:57:45.429Z,60
2016-11-11T06:58:17.750Z,60
2016-11-11T06:58:50.088Z,60
2016-11-11T06:59:22.437Z,60
2016-11-11T06:59:54.755Z,64
2016-11-11T07:00:27.076Z,60
2016-11-11T07:00:59.399Z,60
2016-11-11T07:01:31.728Z,60
2016-11-11T07:02:04.994Z,64
2016-11-11T07:02:37.416Z,64
2016-11-11T07:03:09.734Z,68
2016-11-11T07:03:42.053Z,68
2016-11-11T07:04:14.448Z,68
2016-11-11T07:04:46.788Z,72
2016-11-11T07:05:19.103Z,72
2016-11-11T07:05:51.422Z,76
2016-11-11T07:06:23.741Z,76
2016-11-11T07:06:56.038Z,72
2016-11-11T07:07:28.358Z,68
2016-11-11T07:08:01.565Z,68
2016-11-11T07:08:34.282Z,72
2016-11-11T07:09:06.618Z,76
2016-11-11T07:09:39.003Z,76
2016-11-11T07:10:11.316Z,72
2016-11-11T07:10:43.646Z,76
2016-11-11T07:11:15.982Z,84
2016-11-11T07:11:48.314Z,96
2016-11-11T07:12:21.418Z,96
2016-11-11T07:12:53.764Z,104
2016-11-11T07:13:26.183Z,96
2016-11-11T07:13:59.543Z,96
2016-11-11T07:14:33.703Z,92
2016-11-11T07:15:07.477Z,96
2016-11-11T07:15:43.346Z,104
2016-11-11T07:16:17.325Z,104
2016-11-11T07:16:56.041Z,100
2016-11-11T07:17:31.350Z,96
2016-11-11T07:18:08.937Z,104
2016-11-11T07:18:45.936Z,104
2016-11-11T07:19:21.672Z,116
2016-11-11T07:19:57.450Z,116
2016-11-11T07:20:32.994Z,124
2016-11-11T07:21:08.442Z,132
2016-11-11T07:21:43.741Z,120
2016-11-11T07:22:23.346Z,112
2016-11-11T07:23:08.915Z,116
2016-11-11T07:23:42.924Z,124
2016-11-11T07:24:16.426Z,132
2016-11-11T07:24:52.421Z,132
2016-11-11T07:25:26.716Z,148
2016-11-11T07:26:01.014Z,168
2016-11-11T07:26:34.143Z,164
2016-11-11T07:27:18.975Z,176
2016-11-11T07:27:56.160Z,180
2016-11-11T07:28:36.531Z,168
2016-11-11T07:29:10.661Z,168
2016-11-11T07:29:45.017Z,176
2016-11-11T07:30:18.349Z,176
2016-11-11T07:30:51.829Z,164
2016-11-11T07:31:26.017Z,168
2016-11-11T07:32:00.971Z,180
2016-11-11T07:32:34.517Z,184
2016-11-11T07:33:09.523Z,176
2016-11-11T07:33:50.046Z,180
2016-11-11T07:34:27.022Z,172
2016-11-11T07:35:03.036Z,176
2016-11-11T07:35:39.058Z,188
2016-11-11T07:36:12.744Z,192
2016-11-11T07:36:45.279Z,188
2016-11-11T07:37:22.655Z,204
2016-11-11T07:37:55.090Z,196
2016-11-11T07:38:30.275Z,180
2016-11-11T07:39:06.003Z,176
2016-11-11T07:39:39.612Z,200
2016-11-11T07:40:12.039Z,196
2016-11-11T07:40:45.629Z,188
2016-11-11T07:41:27.646Z,192
2016-11-11T07:42:00.089Z,180
2016-11-11T07:42:33.037Z,176
2016-11-11T07:43:06.605Z,176
2016-11-11T07:43:41.165Z,184
2016-11-11T07:44:17.646Z,204
2016-11-11T07:44:52.040Z,212
2016-11-11T07:45:24.502Z,212
2016-11-11T07:45:56.852Z,228
2016-11-11T07:46:29.217Z,252
2016-11-11T07:47:01.660Z,260
2016-11-11T07:47:36.627Z,248
2016-11-11T07:48:09.107Z,240
2016-11-11T07:48:44.734Z,220
2016-11-11T07:49:18.547Z,208
2016-11-11T07:49:55.885Z,192
2016-11-11T07:50:28.670Z,192
2016-11-11T07:51:01.040Z,196
2016-11-11T07:51:34.158Z,200
2016-11-11T07:52:07.132Z,212
2016-11-11T07:52:39.463Z,240
2016-11-11T07:53:11.799Z,244
2016-11-11T07:53:44.387Z,236
2016-11-11T07:54:18.516Z,216
2016-11-11T07:54:51.677Z,216
2016-11-11T07:55:24.229Z,236
2016-11-11T07:55:58.302Z,272
2016-11-11T07:56:30.774Z,284
2016-11-11T07:57:04.240Z,256
2016-11-11T07:57:37.854Z,252
2016-11-11T07:58:11.263Z,252